Skip Navigation Links Skip Navigation Links

Current Weather

Hamilton Airport, Ont.

For information only: do not use for flight planning or navigation.
Latest weather
Observation time Monday, October 18, 2021 4:00 PM EDT
Local time Monday, October 18, 2021 4:38 PM EDT
Flight conditions Visual Meteorological Conditions
Winds
Wind direction West-Northwest (300°)
Wind speed 10 mph
Visibility 15 mi.
Sky condition
Ceiling unlimited
Cloud layer few clouds 5,000 ft.
Temperature 57°F
Dewpoint 34°F
Altimeter 30.00 in.Hg
Derived measurements
Relative humidity 41%
Density altitude 128 ft.
Sea-level pressure 30.02 in.Hg
METAR CYHM 182000Z 30009KT 15SM FEW050 14/01 A3000 RMK CU1 SLP165

Settings

Location code

InnerDrive.Weather 4.0.6770.0 Release CLR 4.0.30319.42000
Copyright ©2018 Inner Drive Technology. All rights reserved. Portions Copyright ©1986-2018 David Braverman.

Find weather

Site navigation


Skip Navigation Links

Place info

Page info

PayPal - The safer, easier way to pay online!

Return home.

Copyright ©2021 Inner Drive Technology. Purveyors of fine, hand-crafted computer software. Page printed 2021-10-18T20:38:23 UTC.